sensor_id;sensor_type;location;lat;lon;timestamp;pressure;altitude;pressure_sealevel;temperature;humidity
16451;BME280;12243;42.708;23.310;2023-04-06T00:00:48;94803.59;;;0.64;90.22
16451;BME280;12243;42.708;23.310;2023-04-06T00:03:16;94805.41;;;0.62;90.23
16451;BME280;12243;42.708;23.310;2023-04-06T00:05:44;94800.41;;;0.59;89.29
16451;BME280;12243;42.708;23.310;2023-04-06T00:08:11;94788.38;;;0.61;88.39
16451;BME280;12243;42.708;23.310;2023-04-06T00:10:38;94785.50;;;0.67;87.96
16451;BME280;12243;42.708;23.310;2023-04-06T00:13:06;94783.38;;;0.58;87.72
16451;BME280;12243;42.708;23.310;2023-04-06T00:15:33;94783.38;;;0.58;88.45
16451;BME280;12243;42.708;23.310;2023-04-06T00:18:02;94776.47;;;0.60;88.20
16451;BME280;12243;42.708;23.310;2023-04-06T00:20:29;94770.66;;;0.56;87.41
16451;BME280;12243;42.708;23.310;2023-04-06T00:22:57;94770.13;;;0.50;87.46
16451;BME280;12243;42.708;23.310;2023-04-06T00:25:25;94765.22;;;0.45;88.49
16451;BME280;12243;42.708;23.310;2023-04-06T00:27:52;94769.81;;;0.56;87.81
16451;BME280;12243;42.708;23.310;2023-04-06T00:30:19;94768.84;;;0.58;87.72
16451;BME280;12243;42.708;23.310;2023-04-06T00:32:46;94759.75;;;0.70;87.16
16451;BME280;12243;42.708;23.310;2023-04-06T00:35:13;94764.41;;;0.62;87.49
16451;BME280;12243;42.708;23.310;2023-04-06T00:37:41;94754.16;;;0.62;87.97
16451;BME280;12243;42.708;23.310;2023-04-06T00:40:10;94752.50;;;0.61;88.34
16451;BME280;12243;42.708;23.310;2023-04-06T00:42:37;94752.34;;;0.64;87.78
16451;BME280;12243;42.708;23.310;2023-04-06T00:45:05;94760.78;;;0.66;87.61
16451;BME280;12243;42.708;23.310;2023-04-06T00:47:33;94762.38;;;0.68;88.09
16451;BME280;12243;42.708;23.310;2023-04-06T00:50:00;94755.97;;;0.77;87.51
16451;BME280;12243;42.708;23.310;2023-04-06T00:52:28;94750.84;;;0.77;86.69
16451;BME280;12243;42.708;23.310;2023-04-06T00:54:56;94749.78;;;0.81;86.52
16451;BME280;12243;42.708;23.310;2023-04-06T00:57:24;94755.22;;;0.75;86.90
16451;BME280;12243;42.708;23.310;2023-04-06T00:59:54;94748.28;;;0.77;86.53
16451;BME280;12243;42.708;23.310;2023-04-06T01:02:23;94754.22;;;0.78;86.91
16451;BME280;12243;42.708;23.310;2023-04-06T01:04:52;94742.81;;;0.83;86.71
16451;BME280;12243;42.708;23.310;2023-04-06T01:07:30;94745.34;;;0.85;87.22
16451;BME280;12243;42.708;23.310;2023-04-06T01:10:24;94746.00;;;0.88;87.35
16451;BME280;12243;42.708;23.310;2023-04-06T01:12:57;94736.94;;;0.99;86.54
16451;BME280;12243;42.708;23.310;2023-04-06T01:15:47;94745.78;;;0.93;87.23
16451;BME280;12243;42.708;23.310;2023-04-06T01:18:25;94743.16;;;0.94;87.37
16451;BME280;12243;42.708;23.310;2023-04-06T01:21:01;94740.72;;;0.91;87.93
16451;BME280;12243;42.708;23.310;2023-04-06T01:23:30;94748.03;;;0.99;87.28
16451;BME280;12243;42.708;23.310;2023-04-06T01:25:57;94744.78;;;0.95;88.22
16451;BME280;12243;42.708;23.310;2023-04-06T01:28:24;94733.91;;;0.90;88.76
16451;BME280;12243;42.708;23.310;2023-04-06T01:31:03;94732.03;;;0.94;89.21
16451;BME280;12243;42.708;23.310;2023-04-06T01:33:40;94735.97;;;1.01;88.84
16451;BME280;12243;42.708;23.310;2023-04-06T01:36:11;94732.66;;;0.99;88.94
16451;BME280;12243;42.708;23.310;2023-04-06T01:38:40;94729.84;;;1.04;88.91
16451;BME280;12243;42.708;23.310;2023-04-06T01:41:08;94734.16;;;1.03;89.82
16451;BME280;12243;42.708;23.310;2023-04-06T01:43:47;94734.09;;;1.05;89.55
16451;BME280;12243;42.708;23.310;2023-04-06T01:46:15;94726.88;;;1.11;90.10
16451;BME280;12243;42.708;23.310;2023-04-06T01:48:44;94726.38;;;1.05;90.32
16451;BME280;12243;42.708;23.310;2023-04-06T01:51:19;94729.00;;;1.03;90.22
16451;BME280;12243;42.708;23.310;2023-04-06T01:53:55;94723.38;;;0.97;90.25
16451;BME280;12243;42.708;23.310;2023-04-06T01:56:29;94728.03;;;1.06;90.28
16451;BME280;12243;42.708;23.310;2023-04-06T01:59:07;94719.72;;;1.01;90.69
16451;BME280;12243;42.708;23.310;2023-04-06T02:01:39;94712.91;;;1.01;91.15
16451;BME280;12243;42.708;23.310;2023-04-06T02:04:06;94721.56;;;0.99;91.34
16451;BME280;12243;42.708;23.310;2023-04-06T02:06:33;94716.59;;;0.95;91.31
16451;BME280;12243;42.708;23.310;2023-04-06T02:09:03;94708.13;;;0.93;91.51
16451;BME280;12243;42.708;23.310;2023-04-06T02:11:31;94713.94;;;0.97;91.32
16451;BME280;12243;42.708;23.310;2023-04-06T02:13:58;94718.41;;;0.93;91.27
16451;BME280;12243;42.708;23.310;2023-04-06T02:16:29;94710.28;;;0.85;91.42
16451;BME280;12243;42.708;23.310;2023-04-06T02:18:56;94710.78;;;0.92;91.80
16451;BME280;12243;42.708;23.310;2023-04-06T02:21:23;94707.56;;;0.88;91.47
16451;BME280;12243;42.708;23.310;2023-04-06T02:23:51;94703.00;;;0.93;91.58
16451;BME280;12243;42.708;23.310;2023-04-06T02:26:19;94704.34;;;1.01;91.63
16451;BME280;12243;42.708;23.310;2023-04-06T02:28:46;94714.59;;;1.01;92.26
16451;BME280;12243;42.708;23.310;2023-04-06T02:31:14;94706.59;;;1.07;92.51
16451;BME280;12243;42.708;23.310;2023-04-06T02:33:43;94706.56;;;1.24;90.75
16451;BME280;12243;42.708;23.310;2023-04-06T02:36:11;94702.66;;;1.17;90.66
16451;BME280;12243;42.708;23.310;2023-04-06T02:38:38;94707.88;;;1.15;90.62
16451;BME280;12243;42.708;23.310;2023-04-06T02:41:06;94711.28;;;1.16;90.29
16451;BME280;12243;42.708;23.310;2023-04-06T02:43:34;94714.09;;;1.27;89.80
16451;BME280;12243;42.708;23.310;2023-04-06T02:46:11;94711.13;;;1.19;89.89
16451;BME280;12243;42.708;23.310;2023-04-06T02:48:39;94718.44;;;1.09;89.96
16451;BME280;12243;42.708;23.310;2023-04-06T02:51:06;94714.59;;;1.01;89.51
16451;BME280;12243;42.708;23.310;2023-04-06T02:53:34;94712.81;;;1.03;89.50
16451;BME280;12243;42.708;23.310;2023-04-06T02:56:01;94712.97;;;1.00;89.20
16451;BME280;12243;42.708;23.310;2023-04-06T02:58:43;94710.34;;;1.01;89.63
16451;BME280;12243;42.708;23.310;2023-04-06T03:01:10;94719.28;;;1.10;88.64
16451;BME280;12243;42.708;23.310;2023-04-06T03:03:39;94712.50;;;1.09;88.44
16451;BME280;12243;42.708;23.310;2023-04-06T03:06:13;94707.00;;;0.99;87.09
16451;BME280;12243;42.708;23.310;2023-04-06T03:08:40;94711.81;;;1.05;87.43
16451;BME280;12243;42.708;23.310;2023-04-06T03:11:07;94710.50;;;1.14;86.71
16451;BME280;12243;42.708;23.310;2023-04-06T03:13:38;94714.72;;;1.15;86.30
16451;BME280;12243;42.708;23.310;2023-04-06T03:16:09;94704.91;;;1.23;86.55
16451;BME280;12243;42.708;23.310;2023-04-06T03:18:37;94713.53;;;1.38;85.62
16451;BME280;12243;42.708;23.310;2023-04-06T03:21:05;94715.44;;;1.34;85.55
16451;BME280;12243;42.708;23.310;2023-04-06T03:23:42;94714.69;;;1.32;86.34
16451;BME280;12243;42.708;23.310;2023-04-06T03:26:10;94709.78;;;1.28;87.77
16451;BME280;12243;42.708;23.310;2023-04-06T03:28:37;94704.91;;;1.23;88.21
16451;BME280;12243;42.708;23.310;2023-04-06T03:31:05;94709.22;;;1.23;88.95
16451;BME280;12243;42.708;23.310;2023-04-06T03:33:40;94709.94;;;1.25;88.13
16451;BME280;12243;42.708;23.310;2023-04-06T03:36:10;94704.97;;;1.22;88.47
16451;BME280;12243;42.708;23.310;2023-04-06T03:38:40;94703.94;;;1.26;88.32
16451;BME280;12243;42.708;23.310;2023-04-06T03:41:11;94702.78;;;1.31;89.44
16451;BME280;12243;42.708;23.310;2023-04-06T03:43:41;94698.97;;;1.38;88.61
16451;BME280;12243;42.708;23.310;2023-04-06T03:46:08;94709.22;;;1.38;89.38
16451;BME280;12243;42.708;23.310;2023-04-06T03:48:35;94711.91;;;1.37;89.23
16451;BME280;12243;42.708;23.310;2023-04-06T03:51:06;94707.16;;;1.29;90.38
16451;BME280;12243;42.708;23.310;2023-04-06T03:53:33;94710.31;;;1.34;90.54
16451;BME280;12243;42.708;23.310;2023-04-06T03:56:02;94710.47;;;1.31;90.47
16451;BME280;12243;42.708;23.310;2023-04-06T03:58:29;94703.50;;;1.17;90.87
16451;BME280;12243;42.708;23.310;2023-04-06T04:00:56;94710.25;;;1.18;92.40
16451;BME280;12243;42.708;23.310;2023-04-06T04:03:24;94713.06;;;1.14;92.80
16451;BME280;12243;42.708;23.310;2023-04-06T04:05:53;94703.06;;;1.09;93.06
16451;BME280;12243;42.708;23.310;2023-04-06T04:08:24;94708.44;;;1.05;92.30
16451;BME280;12243;42.708;23.310;2023-04-06T04:10:51;94709.84;;;1.10;92.50
16451;BME280;12243;42.708;23.310;2023-04-06T04:13:19;94699.38;;;0.98;92.62
16451;BME280;12243;42.708;23.310;2023-04-06T04:15:49;94715.47;;;1.01;92.85
16451;BME280;12243;42.708;23.310;2023-04-06T04:18:16;94707.97;;;0.97;92.90
16451;BME280;12243;42.708;23.310;2023-04-06T04:20:43;94705.88;;;1.05;93.07
16451;BME280;12243;42.708;23.310;2023-04-06T04:23:12;94710.50;;;1.14;91.82
16451;BME280;12243;42.708;23.310;2023-04-06T04:25:42;94704.75;;;1.26;91.20
16451;BME280;12243;42.708;23.310;2023-04-06T04:28:10;94704.59;;;1.29;92.05
16451;BME280;12243;42.708;23.310;2023-04-06T04:30:38;94702.28;;;1.40;91.41
16451;BME280;12243;42.708;23.310;2023-04-06T04:33:09;94706.91;;;1.34;89.91
16451;BME280;12243;42.708;23.310;2023-04-06T04:35:36;94705.50;;;1.28;90.23
16451;BME280;12243;42.708;23.310;2023-04-06T04:38:05;94707.44;;;1.40;90.50
16451;BME280;12243;42.708;23.310;2023-04-06T04:40:34;94714.22;;;1.41;89.29
16451;BME280;12243;42.708;23.310;2023-04-06T04:43:07;94715.38;;;1.52;89.08
16451;BME280;12243;42.708;23.310;2023-04-06T04:45:35;94716.13;;;1.54;88.53
16451;BME280;12243;42.708;23.310;2023-04-06T04:48:12;94713.72;;;1.51;87.79
16451;BME280;12243;42.708;23.310;2023-04-06T04:50:49;94708.59;;;1.51;88.59
16451;BME280;12243;42.708;23.310;2023-04-06T04:53:20;94710.09;;;1.55;89.11
16451;BME280;12243;42.708;23.310;2023-04-06T04:55:48;94711.06;;;1.52;90.20
16451;BME280;12243;42.708;23.310;2023-04-06T04:58:17;94706.75;;;1.53;90.66
16451;BME280;12243;42.708;23.310;2023-04-06T05:00:53;94709.94;;;1.58;90.79
16451;BME280;12243;42.708;23.310;2023-04-06T05:03:22;94716.13;;;1.54;90.54
16451;BME280;12243;42.708;23.310;2023-04-06T05:05:56;94704.53;;;1.47;90.98
16451;BME280;12243;42.708;23.310;2023-04-06T05:08:27;94704.97;;;1.55;90.88
16451;BME280;12243;42.708;23.310;2023-04-06T05:10:54;94705.88;;;1.54;90.22
16451;BME280;12243;42.708;23.310;2023-04-06T05:13:24;94701.81;;;1.65;89.93
16451;BME280;12243;42.708;23.310;2023-04-06T05:15:53;94705.97;;;1.68;88.79
16451;BME280;12243;42.708;23.310;2023-04-06T05:18:25;94700.66;;;1.71;88.44
16451;BME280;12243;42.708;23.310;2023-04-06T05:20:53;94701.91;;;1.64;87.62
16451;BME280;12243;42.708;23.310;2023-04-06T05:23:27;94710.06;;;1.71;87.31
16451;BME280;12243;42.708;23.310;2023-04-06T05:25:56;94699.06;;;1.84;86.61
16451;BME280;12243;42.708;23.310;2023-04-06T05:28:25;94704.13;;;1.70;86.74
16451;BME280;12243;42.708;23.310;2023-04-06T05:30:53;94712.19;;;1.64;86.75
16451;BME280;12243;42.708;23.310;2023-04-06T05:33:20;94700.31;;;1.61;87.52
16451;BME280;12243;42.708;23.310;2023-04-06T05:35:59;94699.97;;;1.52;88.20
16451;BME280;12243;42.708;23.310;2023-04-06T05:38:28;94705.88;;;1.54;88.07
16451;BME280;12243;42.708;23.310;2023-04-06T05:41:00;94700.09;;;1.50;88.51
16451;BME280;12243;42.708;23.310;2023-04-06T05:43:32;94695.50;;;1.55;88.65
16451;BME280;12243;42.708;23.310;2023-04-06T05:46:01;94698.91;;;1.56;89.02
16451;BME280;12243;42.708;23.310;2023-04-06T05:48:29;94695.94;;;1.79;88.73
16451;BME280;12243;42.708;23.310;2023-04-06T05:50:56;94705.13;;;1.83;87.57
16451;BME280;12243;42.708;23.310;2023-04-06T05:53:32;94695.84;;;1.65;87.45
16451;BME280;12243;42.708;23.310;2023-04-06T05:56:00;94693.03;;;1.70;87.98
16451;BME280;12243;42.708;23.310;2023-04-06T05:58:28;94690.41;;;1.71;88.54
16451;BME280;12243;42.708;23.310;2023-04-06T06:00:58;94703.16;;;1.88;87.82
16451;BME280;12243;42.708;23.310;2023-04-06T06:03:28;94693.94;;;1.84;88.41
16451;BME280;12243;42.708;23.310;2023-04-06T06:06:00;94683.44;;;1.89;88.73
16451;BME280;12243;42.708;23.310;2023-04-06T06:08:35;94695.34;;;1.74;89.80
16451;BME280;12243;42.708;23.310;2023-04-06T06:11:07;94698.81;;;1.73;88.50
16451;BME280;12243;42.708;23.310;2023-04-06T06:13:35;94687.56;;;1.60;88.92
16451;BME280;12243;42.708;23.310;2023-04-06T06:16:04;94689.06;;;1.64;89.10
16451;BME280;12243;42.708;23.310;2023-04-06T06:18:34;94681.84;;;1.71;88.32
16451;BME280;12243;42.708;23.310;2023-04-06T06:21:03;94686.75;;;1.75;88.48
16451;BME280;12243;42.708;23.310;2023-04-06T06:23:31;94693.28;;;1.97;87.76
16451;BME280;12243;42.708;23.310;2023-04-06T06:25:58;94689.03;;;2.11;87.33
16451;BME280;12243;42.708;23.310;2023-04-06T06:28:27;94696.56;;;2.14;86.29
16451;BME280;12243;42.708;23.310;2023-04-06T06:30:55;94689.81;;;2.28;85.88
16451;BME280;12243;42.708;23.310;2023-04-06T06:33:26;94685.84;;;2.22;86.18
16451;BME280;12243;42.708;23.310;2023-04-06T06:35:55;94687.91;;;2.31;86.07
16451;BME280;12243;42.708;23.310;2023-04-06T06:38:22;94697.19;;;2.34;85.70
16451;BME280;12243;42.708;23.310;2023-04-06T06:40:49;94692.13;;;2.32;85.22
16451;BME280;12243;42.708;23.310;2023-04-06T06:43:16;94692.66;;;2.23;85.93
16451;BME280;12243;42.708;23.310;2023-04-06T06:45:51;94702.75;;;2.26;86.13
16451;BME280;12243;42.708;23.310;2023-04-06T06:48:18;94693.97;;;2.30;86.24
16451;BME280;12243;42.708;23.310;2023-04-06T06:50:48;94697.66;;;2.41;86.02
16451;BME280;12243;42.708;23.310;2023-04-06T06:53:16;94689.94;;;2.41;86.23
16451;BME280;12243;42.708;23.310;2023-04-06T06:55:47;94703.19;;;2.49;86.41
16451;BME280;12243;42.708;23.310;2023-04-06T06:58:18;94701.72;;;2.45;85.08
16451;BME280;12243;42.708;23.310;2023-04-06T07:00:46;94694.31;;;2.24;85.61
16451;BME280;12243;42.708;23.310;2023-04-06T07:03:13;94700.94;;;2.28;86.22
16451;BME280;12243;42.708;23.310;2023-04-06T07:05:45;94691.97;;;2.35;85.66
16451;BME280;12243;42.708;23.310;2023-04-06T07:08:17;94693.13;;;2.30;85.90
16451;BME280;12243;42.708;23.310;2023-04-06T07:10:44;94693.47;;;2.54;86.16
16451;BME280;12243;42.708;23.310;2023-04-06T07:13:13;94694.09;;;2.73;84.89
16451;BME280;12243;42.708;23.310;2023-04-06T07:15:44;94696.56;;;2.75;83.53
16451;BME280;12243;42.708;23.310;2023-04-06T07:18:11;94690.13;;;2.82;83.84
16451;BME280;12243;42.708;23.310;2023-04-06T07:20:39;94697.25;;;3.07;84.07
16451;BME280;12243;42.708;23.310;2023-04-06T07:23:06;94694.69;;;3.36;81.80
16451;BME280;12243;42.708;23.310;2023-04-06T07:25:35;94692.53;;;3.56;82.39
16451;BME280;12243;42.708;23.310;2023-04-06T07:28:02;94693.72;;;3.51;80.03
16451;BME280;12243;42.708;23.310;2023-04-06T07:30:30;94691.72;;;3.56;80.79
16451;BME280;12243;42.708;23.310;2023-04-06T07:32:58;94684.84;;;3.42;79.88
16451;BME280;12243;42.708;23.310;2023-04-06T07:35:27;94696.03;;;3.41;80.91
16451;BME280;12243;42.708;23.310;2023-04-06T07:37:56;94697.78;;;3.26;80.67
16451;BME280;12243;42.708;23.310;2023-04-06T07:40:24;94681.63;;;3.39;81.05
16451;BME280;12243;42.708;23.310;2023-04-06T07:42:54;94691.78;;;3.69;79.54
16451;BME280;12243;42.708;23.310;2023-04-06T07:45:21;94674.16;;;3.90;78.16
16451;BME280;12243;42.708;23.310;2023-04-06T07:47:49;94685.50;;;3.87;77.72
16451;BME280;12243;42.708;23.310;2023-04-06T07:50:16;94678.63;;;4.27;77.58
16451;BME280;12243;42.708;23.310;2023-04-06T07:52:44;94682.28;;;4.38;75.85
16451;BME280;12243;42.708;23.310;2023-04-06T07:55:11;94686.47;;;4.26;76.31
16451;BME280;12243;42.708;23.310;2023-04-06T07:57:39;94682.63;;;3.92;76.22
16451;BME280;12243;42.708;23.310;2023-04-06T08:00:09;94682.19;;;3.85;76.42
16451;BME280;12243;42.708;23.310;2023-04-06T08:02:39;94681.63;;;3.94;77.07
16451;BME280;12243;42.708;23.310;2023-04-06T08:05:07;94698.72;;;4.22;76.17
16451;BME280;12243;42.708;23.310;2023-04-06T08:07:34;94680.28;;;4.28;75.02
16451;BME280;12243;42.708;23.310;2023-04-06T08:10:01;94683.25;;;4.62;74.61
16451;BME280;12243;42.708;23.310;2023-04-06T08:12:28;94684.81;;;4.77;74.15
16451;BME280;12243;42.708;23.310;2023-04-06T08:14:55;94685.78;;;4.89;71.80
16451;BME280;12243;42.708;23.310;2023-04-06T08:17:24;94673.75;;;4.50;71.54
16451;BME280;12243;42.708;23.310;2023-04-06T08:19:53;94677.91;;;4.91;71.87
16451;BME280;12243;42.708;23.310;2023-04-06T08:22:20;94677.00;;;5.05;69.54
16451;BME280;12243;42.708;23.310;2023-04-06T08:24:47;94675.22;;;5.05;69.89
16451;BME280;12243;42.708;23.310;2023-04-06T08:27:14;94670.69;;;5.21;69.49
16451;BME280;12243;42.708;23.310;2023-04-06T08:29:41;94681.84;;;5.35;68.76
16451;BME280;12243;42.708;23.310;2023-04-06T08:32:08;94684.50;;;5.59;68.88
16451;BME280;12243;42.708;23.310;2023-04-06T08:34:40;94678.34;;;5.10;68.52
16451;BME280;12243;42.708;23.310;2023-04-06T08:37:07;94682.03;;;5.19;70.04
16451;BME280;12243;42.708;23.310;2023-04-06T08:39:34;94678.00;;;5.40;68.75
16451;BME280;12243;42.708;23.310;2023-04-06T08:42:01;94678.88;;;5.78;68.65
16451;BME280;12243;42.708;23.310;2023-04-06T08:44:30;94678.66;;;5.93;67.74
16451;BME280;12243;42.708;23.310;2023-04-06T08:47:00;94672.78;;;6.15;66.88
16451;BME280;12243;42.708;23.310;2023-04-06T08:49:28;94691.25;;;5.85;66.49
16451;BME280;12243;42.708;23.310;2023-04-06T08:51:57;94688.53;;;6.00;66.76
16451;BME280;12243;42.708;23.310;2023-04-06T08:54:24;94687.06;;;6.08;65.94
16451;BME280;12243;42.708;23.310;2023-04-06T08:56:52;94694.69;;;5.86;65.65
16451;BME280;12243;42.708;23.310;2023-04-06T08:59:23;94679.53;;;5.68;67.31
16451;BME280;12243;42.708;23.310;2023-04-06T09:01:51;94676.09;;;6.17;65.96
16451;BME280;12243;42.708;23.310;2023-04-06T09:04:19;94681.38;;;6.51;64.91
16451;BME280;12243;42.708;23.310;2023-04-06T09:06:46;94678.13;;;7.18;63.25
16451;BME280;12243;42.708;23.310;2023-04-06T09:09:16;94670.88;;;7.23;62.75
16451;BME280;12243;42.708;23.310;2023-04-06T09:11:46;94670.22;;;6.97;62.34
16451;BME280;12243;42.708;23.310;2023-04-06T09:14:14;94676.19;;;6.40;63.00
16451;BME280;12243;42.708;23.310;2023-04-06T09:16:43;94673.84;;;6.48;64.12
16451;BME280;12243;42.708;23.310;2023-04-06T09:19:11;94673.03;;;6.48;63.30
16451;BME280;12243;42.708;23.310;2023-04-06T09:21:39;94665.66;;;6.30;64.91
16451;BME280;12243;42.708;23.310;2023-04-06T09:24:08;94665.03;;;6.15;65.22
16451;BME280;12243;42.708;23.310;2023-04-06T09:26:46;94665.09;;;6.38;64.51
16451;BME280;12243;42.708;23.310;2023-04-06T09:29:22;94657.81;;;6.32;63.65
16451;BME280;12243;42.708;23.310;2023-04-06T09:32:02;94661.84;;;6.47;63.47
16451;BME280;12243;42.708;23.310;2023-04-06T09:34:29;94672.19;;;6.71;63.36
16451;BME280;12243;42.708;23.310;2023-04-06T09:36:57;94666.00;;;6.50;62.73
16451;BME280;12243;42.708;23.310;2023-04-06T09:39:24;94672.66;;;6.41;62.92
16451;BME280;12243;42.708;23.310;2023-04-06T09:41:53;94669.59;;;6.36;63.19
16451;BME280;12243;42.708;23.310;2023-04-06T09:44:21;94674.59;;;6.02;63.46
16451;BME280;12243;42.708;23.310;2023-04-06T09:46:49;94666.09;;;5.63;65.50
16451;BME280;12243;42.708;23.310;2023-04-06T09:49:17;94663.22;;;5.55;65.96
16451;BME280;12243;42.708;23.310;2023-04-06T09:51:46;94660.72;;;5.66;66.23
16451;BME280;12243;42.708;23.310;2023-04-06T09:54:18;94657.78;;;5.84;66.22
16451;BME280;12243;42.708;23.310;2023-04-06T09:56:46;94660.41;;;6.08;65.42
16451;BME280;12243;42.708;23.310;2023-04-06T09:59:21;94682.94;;;6.06;64.50
16451;BME280;12243;42.708;23.310;2023-04-06T10:01:55;94656.06;;;6.08;64.75
16451;BME280;12243;42.708;23.310;2023-04-06T10:04:32;94659.94;;;6.38;63.72
16451;BME280;12243;42.708;23.310;2023-04-06T10:07:04;94661.84;;;6.47;63.46
16451;BME280;12243;42.708;23.310;2023-04-06T10:09:32;94656.88;;;6.68;61.41
16451;BME280;12243;42.708;23.310;2023-04-06T10:12:03;94660.28;;;6.68;61.37
16451;BME280;12243;42.708;23.310;2023-04-06T10:14:33;94656.06;;;6.79;60.52
16451;BME280;12243;42.708;23.310;2023-04-06T10:17:03;94659.41;;;7.03;59.95
16451;BME280;12243;42.708;23.310;2023-04-06T10:19:35;94649.28;;;7.00;60.71
16451;BME280;12243;42.708;23.310;2023-04-06T10:22:08;94646.50;;;7.26;59.96
16451;BME280;12243;42.708;23.310;2023-04-06T10:24:36;94638.59;;;7.61;58.42
16451;BME280;12243;42.708;23.310;2023-04-06T10:27:04;94643.91;;;7.48;57.70
16451;BME280;12243;42.708;23.310;2023-04-06T10:29:44;94642.97;;;7.15;58.58
16451;BME280;12243;42.708;23.310;2023-04-06T10:32:12;94640.00;;;7.65;57.70
16451;BME280;12243;42.708;23.310;2023-04-06T10:34:39;94637.16;;;7.79;56.56
16451;BME280;12243;42.708;23.310;2023-04-06T10:37:13;94637.44;;;8.08;56.42
16451;BME280;12243;42.708;23.310;2023-04-06T10:39:52;94629.97;;;8.26;54.83
16451;BME280;12243;42.708;23.310;2023-04-06T10:42:25;94631.38;;;7.76;56.45
16451;BME280;12243;42.708;23.310;2023-04-06T10:44:54;94636.03;;;8.04;57.30
16451;BME280;12243;42.708;23.310;2023-04-06T10:47:21;94627.38;;;7.83;55.62
16451;BME280;12243;42.708;23.310;2023-04-06T10:49:48;94646.84;;;7.10;57.93
16451;BME280;12243;42.708;23.310;2023-04-06T10:52:16;94640.19;;;6.83;59.15
16451;BME280;12243;42.708;23.310;2023-04-06T10:54:43;94645.03;;;6.77;57.37
16451;BME280;12243;42.708;23.310;2023-04-06T10:57:10;94640.50;;;6.56;58.58
16451;BME280;12243;42.708;23.310;2023-04-06T10:59:42;94632.13;;;6.99;58.84
16451;BME280;12243;42.708;23.310;2023-04-06T11:02:20;94639.91;;;7.33;58.24
16451;BME280;12243;42.708;23.310;2023-04-06T11:04:57;94642.97;;;7.04;57.92
16451;BME280;12243;42.708;23.310;2023-04-06T11:07:25;94642.88;;;6.71;58.82
16451;BME280;12243;42.708;23.310;2023-04-06T11:09:52;94632.72;;;6.45;59.55
16451;BME280;12243;42.708;23.310;2023-04-06T11:12:23;94623.72;;;6.38;58.82
16451;BME280;12243;42.708;23.310;2023-04-06T11:14:55;94617.63;;;6.39;59.69
16451;BME280;12243;42.708;23.310;2023-04-06T11:17:31;94612.22;;;6.77;58.54
16451;BME280;12243;42.708;23.310;2023-04-06T11:19:58;94613.97;;;6.88;57.93
16451;BME280;12243;42.708;23.310;2023-04-06T11:22:26;94609.06;;;7.19;57.29
16451;BME280;12243;42.708;23.310;2023-04-06T11:25:04;94607.03;;;7.00;57.63
16451;BME280;12243;42.708;23.310;2023-04-06T11:27:31;94600.09;;;7.00;57.43
16451;BME280;12243;42.708;23.310;2023-04-06T11:29:58;94604.13;;;7.04;57.62
16451;BME280;12243;42.708;23.310;2023-04-06T11:32:26;94608.34;;;7.39;56.70
16451;BME280;12243;42.708;23.310;2023-04-06T11:34:55;94599.38;;;7.54;56.20
16451;BME280;12243;42.708;23.310;2023-04-06T11:37:26;94604.78;;;7.62;56.18
16451;BME280;12243;42.708;23.310;2023-04-06T11:39:54;94599.25;;;7.67;56.00
16451;BME280;12243;42.708;23.310;2023-04-06T11:42:25;94585.94;;;7.49;55.97
16451;BME280;12243;42.708;23.310;2023-04-06T11:44:54;94591.63;;;7.32;56.26
16451;BME280;12243;42.708;23.310;2023-04-06T11:47:27;94592.22;;;7.13;57.09
16451;BME280;12243;42.708;23.310;2023-04-06T11:50:05;94586.44;;;7.32;57.54
16451;BME280;12243;42.708;23.310;2023-04-06T11:52:33;94585.50;;;7.44;56.87
16451;BME280;12243;42.708;23.310;2023-04-06T11:55:10;94576.66;;;7.58;56.17
16451;BME280;12243;42.708;23.310;2023-04-06T11:57:38;94599.41;;;7.43;56.73
16451;BME280;12243;42.708;23.310;2023-04-06T12:00:06;94579.25;;;7.47;56.71
16451;BME280;12243;42.708;23.310;2023-04-06T12:02:34;94577.53;;;7.79;56.03
16451;BME280;12243;42.708;23.310;2023-04-06T12:05:03;94578.34;;;7.80;55.77
16451;BME280;12243;42.708;23.310;2023-04-06T12:07:31;94586.22;;;7.90;55.08
16451;BME280;12243;42.708;23.310;2023-04-06T12:10:00;94584.56;;;7.34;56.29
16451;BME280;12243;42.708;23.310;2023-04-06T12:12:28;94580.44;;;7.20;57.22
16451;BME280;12243;42.708;23.310;2023-04-06T12:14:55;94575.63;;;7.15;57.19
16451;BME280;12243;42.708;23.310;2023-04-06T12:17:23;94570.69;;;7.12;57.76
16451;BME280;12243;42.708;23.310;2023-04-06T12:19:50;94576.44;;;7.38;57.65
16451;BME280;12243;42.708;23.310;2023-04-06T12:22:20;94565.38;;;7.80;55.92
16451;BME280;12243;42.708;23.310;2023-04-06T12:24:47;94566.22;;;7.80;55.30
16451;BME280;12243;42.708;23.310;2023-04-06T12:27:14;94573.63;;;7.85;54.81
16451;BME280;12243;42.708;23.310;2023-04-06T12:29:42;94572.63;;;7.97;53.84
16451;BME280;12243;42.708;23.310;2023-04-06T12:32:09;94571.97;;;7.95;53.44
16451;BME280;12243;42.708;23.310;2023-04-06T12:34:38;94575.59;;;7.60;53.60
16451;BME280;12243;42.708;23.310;2023-04-06T12:37:05;94563.34;;;7.51;54.40
16451;BME280;12243;42.708;23.310;2023-04-06T12:39:34;94563.66;;;7.69;54.42
16451;BME280;12243;42.708;23.310;2023-04-06T12:42:01;94575.00;;;7.57;54.52
16451;BME280;12243;42.708;23.310;2023-04-06T12:44:29;94566.28;;;7.58;54.75
16451;BME280;12243;42.708;23.310;2023-04-06T12:46:56;94559.16;;;7.82;54.83
16451;BME280;12243;42.708;23.310;2023-04-06T12:49:23;94562.38;;;7.52;54.71
16451;BME280;12243;42.708;23.310;2023-04-06T12:51:51;94561.00;;;7.37;55.29
16451;BME280;12243;42.708;23.310;2023-04-06T12:54:18;94557.84;;;7.33;56.29
16451;BME280;12243;42.708;23.310;2023-04-06T12:56:47;94555.63;;;7.29;56.31
16451;BME280;12243;42.708;23.310;2023-04-06T12:59:14;94555.47;;;7.42;55.79
16451;BME280;12243;42.708;23.310;2023-04-06T13:01:42;94568.31;;;7.21;56.16
16451;BME280;12243;42.708;23.310;2023-04-06T13:04:09;94550.69;;;7.03;56.77
16451;BME280;12243;42.708;23.310;2023-04-06T13:06:36;94553.13;;;6.93;56.84
16451;BME280;12243;42.708;23.310;2023-04-06T13:09:04;94547.03;;;6.95;56.93
16451;BME280;12243;42.708;23.310;2023-04-06T13:11:31;94541.84;;;6.83;57.40